Time;durP1;ratioP1;P1;durP2;ratioP2;P2;SDS_P1;SDS_P2;PMS_P1;PMS_P2;Temp;Humidity;BMP_temperature;BMP_pressure;BME280_temperature;BME280_humidity;BME280_pressure;Samples;Min_cycle;Max_cycle;Signal;HPM_P1;HPM_P2
2022/08/15 00:01:23;;;;;;;11.77;6.10;;;;;;;;;;5033974;28;20492;-46
2022/08/15 00:03:55;;;;;;;8.55;5.85;;;;;;;;;;5051989;28;20503;-45
2022/08/15 00:06:24;;;;;;;7.63;5.72;;;;;;;;;;5052200;28;20030;-44
2022/08/15 00:08:56;;;;;;;8.93;6.45;;;;;;;;;;5051859;28;20025;-45
2022/08/15 00:11:31;;;;;;;6.85;5.88;;;;;;;;;;5051850;28;20033;-47
2022/08/15 00:14:03;;;;;;;11.38;6.65;;;;;;;;;;5051929;28;20032;-42
2022/08/15 00:16:36;;;;;;;8.57;5.70;;;;;;;;;;5051791;28;20040;-44
2022/08/15 00:19:12;;;;;;;8.88;6.78;;;;;;;;;;5052136;28;20028;-44
2022/08/15 00:21:43;;;;;;;12.30;6.72;;;;;;;;;;5052085;28;20408;-45
2022/08/15 00:24:10;;;;;;;9.02;5.75;;;;;;;;;;5051756;28;20453;-47
2022/08/15 00:26:36;;;;;;;8.07;6.30;;;;;;;;;;5051767;28;20035;-47
2022/08/15 00:29:04;;;;;;;13.13;6.00;;;;;;;;;;5051852;28;20140;-43
2022/08/15 00:31:31;;;;;;;7.32;5.50;;;;;;;;;;5051944;28;20021;-43
2022/08/15 00:34:00;;;;;;;9.75;6.22;;;;;;;;;;5055284;28;20052;-43
2022/08/15 00:36:26;;;;;;;10.68;7.13;;;;;;;;;;5055420;28;20021;-44
2022/08/15 00:38:51;;;;;;;7.47;6.57;;;;;;;;;;5055305;28;20021;-44
2022/08/15 00:44:05;;;;;;;8.60;6.35;;;;;;;;;;5055263;28;20466;-44
2022/08/15 00:46:31;;;;;;;13.27;6.60;;;;;;;;;;5055417;28;20472;-43
2022/08/15 00:48:57;;;;;;;13.73;6.70;;;;;;;;;;5037502;28;20052;-43
2022/08/15 00:51:52;;;;;;;9.77;6.82;;;;;;;;;;5054982;28;20376;-42
2022/08/15 00:54:26;;;;;;;7.13;6.15;;;;;;;;;;5055247;28;20040;-42
2022/08/15 00:57:18;;;;;;;12.00;6.55;;;;;;;;;;5054918;28;20052;-44
2022/08/15 00:59:48;;;;;;;9.80;6.45;;;;;;;;;;5044068;28;20049;-43
2022/08/15 01:02:19;;;;;;;14.70;7.13;;;;;;;;;;5055399;28;20036;-43
2022/08/15 01:04:45;;;;;;;9.75;6.68;;;;;;;;;;5055049;28;20032;-43
2022/08/15 01:07:10;;;;;;;9.05;6.60;;;;;;;;;;5054662;28;20036;-42
2022/08/15 01:09:37;;;;;;;8.25;6.35;;;;;;;;;;5054637;28;20021;-43
2022/08/15 01:12:10;;;;;;;9.05;6.63;;;;;;;;;;5054997;28;20044;-42
2022/08/15 01:14:38;;;;;;;10.40;6.65;;;;;;;;;;5054634;28;20029;-42
2022/08/15 01:17:07;;;;;;;10.88;6.60;;;;;;;;;;5054599;28;20163;-42
2022/08/15 01:19:49;;;;;;;6.95;6.10;;;;;;;;;;5054437;28;20032;-42
2022/08/15 01:22:26;;;;;;;10.93;6.47;;;;;;;;;;5054709;28;20021;-43
2022/08/15 01:25:17;;;;;;;10.73;6.35;;;;;;;;;;5054714;28;20064;-42
2022/08/15 01:27:56;;;;;;;10.25;6.50;;;;;;;;;;5054374;28;20021;-44
2022/08/15 01:30:27;;;;;;;7.35;6.10;;;;;;;;;;5054374;28;20043;-43
2022/08/15 01:32:56;;;;;;;11.82;6.38;;;;;;;;;;5054490;28;20150;-43
2022/08/15 01:35:22;;;;;;;11.63;6.57;;;;;;;;;;5053944;28;20481;-43
2022/08/15 01:37:50;;;;;;;11.32;6.57;;;;;;;;;;5054151;28;20040;-43
2022/08/15 01:40:52;;;;;;;10.07;7.20;;;;;;;;;;5053967;28;20032;-42
2022/08/15 01:43:24;;;;;;;11.75;7.97;;;;;;;;;;5053535;28;20061;-42
2022/08/15 01:45:52;;;;;;;11.65;6.88;;;;;;;;;;5053995;28;20060;-42
2022/08/15 01:48:24;;;;;;;8.05;6.63;;;;;;;;;;5053944;28;20036;-42
2022/08/15 01:50:55;;;;;;;8.88;6.55;;;;;;;;;;5053959;28;20477;-44
2022/08/15 01:53:30;;;;;;;11.52;8.23;;;;;;;;;;5054121;28;20032;-46
2022/08/15 01:56:02;;;;;;;11.85;8.05;;;;;;;;;;5054130;28;20028;-45
2022/08/15 01:58:28;;;;;;;9.65;6.53;;;;;;;;;;5053735;28;20090;-43
2022/08/15 02:01:06;;;;;;;13.57;7.38;;;;;;;;;;5053570;28;20056;-43
2022/08/15 02:03:36;;;;;;;7.57;6.18;;;;;;;;;;5053659;28;20472;-42
2022/08/15 02:06:06;;;;;;;;;;;;;;;;;;5054045;28;20385;-42
2022/08/15 02:08:31;;;;;;;9.77;6.78;;;;;;;;;;5053919;28;20047;-42
2022/08/15 02:10:57;;;;;;;7.65;6.82;;;;;;;;;;5053515;28;20158;-42
2022/08/15 02:13:24;;;;;;;10.45;6.43;;;;;;;;;;5053785;28;20484;-43
2022/08/15 02:15:50;;;;;;;7.65;6.07;;;;;;;;;;5053764;28;20220;-44
2022/08/15 02:18:16;;;;;;;9.07;7.07;;;;;;;;;;5053259;28;20025;-44
2022/08/15 02:20:42;;;;;;;9.55;6.45;;;;;;;;;;5053256;28;20039;-43
2022/08/15 02:23:08;;;;;;;7.65;6.50;;;;;;;;;;5053486;28;20037;-44
2022/08/15 02:25:33;;;;;;;11.80;6.68;;;;;;;;;;5053490;28;20021;-44
2022/08/15 02:27:58;;;;;;;10.15;6.97;;;;;;;;;;5053294;28;20465;-43
2022/08/15 02:30:26;;;;;;;13.70;7.25;;;;;;;;;;5053092;28;20052;-43
2022/08/15 02:32:52;;;;;;;8.45;6.85;;;;;;;;;;5053363;28;20033;-42
2022/08/15 02:35:18;;;;;;;9.32;6.55;;;;;;;;;;5052882;28;20098;-42
2022/08/15 02:37:45;;;;;;;9.18;6.60;;;;;;;;;;5053039;28;20035;-43
2022/08/15 02:40:15;;;;;;;11.65;7.38;;;;;;;;;;5052907;28;20388;-43
2022/08/15 02:42:42;;;;;;;8.35;6.65;;;;;;;;;;5052939;28;20032;-42
2022/08/15 02:45:10;;;;;;;10.38;7.30;;;;;;;;;;5052816;28;20057;-47
2022/08/15 02:47:43;;;;;;;9.50;7.43;;;;;;;;;;5052791;28;20121;-42
2022/08/15 02:50:10;;;;;;;8.15;6.82;;;;;;;;;;5035000;28;20070;-47
2022/08/15 02:52:40;;;;;;;10.13;7.05;;;;;;;;;;5053066;28;20021;-45
2022/08/15 02:55:08;;;;;;;9.40;7.32;;;;;;;;;;5052621;28;20070;-43
2022/08/15 02:57:34;;;;;;;14.23;7.63;;;;;;;;;;5052662;28;20107;-43
2022/08/15 02:59:59;;;;;;;9.73;7.15;;;;;;;;;;5052521;28;20117;-42
2022/08/15 03:02:26;;;;;;;12.55;7.43;;;;;;;;;;5052862;28;20025;-42
2022/08/15 03:04:51;;;;;;;8.80;7.28;;;;;;;;;;5052568;28;20036;-44
2022/08/15 03:07:17;;;;;;;9.10;7.22;;;;;;;;;;5053168;28;20381;-44
2022/08/15 03:09:43;;;;;;;13.77;7.15;;;;;;;;;;5052815;28;20120;-44
2022/08/15 03:12:13;;;;;;;8.95;7.00;;;;;;;;;;5052580;28;20029;-44
2022/08/15 03:14:39;;;;;;;10.02;6.97;;;;;;;;;;5052377;28;20103;-45
2022/08/15 03:17:09;;;;;;;11.20;6.80;;;;;;;;;;5052401;28;20066;-45
2022/08/15 03:19:37;;;;;;;11.15;7.30;;;;;;;;;;5052561;28;20056;-44
2022/08/15 03:22:03;;;;;;;11.30;7.90;;;;;;;;;;5052300;28;20025;-42
2022/08/15 03:24:32;;;;;;;14.77;7.18;;;;;;;;;;5052379;28;20539;-43
2022/08/15 03:26:57;;;;;;;16.25;7.68;;;;;;;;;;5052317;28;20393;-44
2022/08/15 03:29:23;;;;;;;14.10;7.50;;;;;;;;;;5052338;28;20025;-44
2022/08/15 03:31:52;;;;;;;14.75;7.57;;;;;;;;;;5052553;28;20392;-45
2022/08/15 03:34:22;;;;;;;8.70;7.30;;;;;;;;;;5052222;28;20137;-44
2022/08/15 03:36:48;;;;;;;8.25;6.78;;;;;;;;;;5052265;28;20024;-45
2022/08/15 03:39:15;;;;;;;10.93;7.55;;;;;;;;;;5052160;28;20388;-43
2022/08/15 03:41:42;;;;;;;14.55;7.90;;;;;;;;;;5052304;28;20047;-44
2022/08/15 03:44:07;;;;;;;12.75;8.50;;;;;;;;;;5052136;28;20040;-48
2022/08/15 03:46:33;;;;;;;11.82;7.60;;;;;;;;;;5052010;28;20100;-43
2022/08/15 03:48:58;;;;;;;10.70;7.45;;;;;;;;;;5052096;28;20025;-45
2022/08/15 03:51:26;;;;;;;11.98;7.30;;;;;;;;;;5052058;28;20056;-43
2022/08/15 03:53:55;;;;;;;13.77;8.02;;;;;;;;;;5052328;28;20024;-44
2022/08/15 03:56:24;;;;;;;13.45;7.95;;;;;;;;;;5051985;28;20029;-43
2022/08/15 03:58:51;;;;;;;13.57;7.65;;;;;;;;;;5051959;28;20017;-45
2022/08/15 04:01:25;;;;;;;10.88;7.53;;;;;;;;;;5052163;28;20455;-44
2022/08/15 04:03:51;;;;;;;11.45;7.70;;;;;;;;;;5034025;28;20029;-43
2022/08/15 04:06:20;;;;;;;10.73;7.70;;;;;;;;;;5051892;28;20063;-43
2022/08/15 04:08:49;;;;;;;20.85;7.68;;;;;;;;;;5055868;28;20043;-42
2022/08/15 04:11:16;;;;;;;11.60;7.70;;;;;;;;;;5056035;28;20032;-43
2022/08/15 04:13:43;;;;;;;10.63;6.85;;;;;;;;;;5055741;28;20033;-42
2022/08/15 04:16:10;;;;;;;12.50;6.90;;;;;;;;;;5055935;28;20078;-43
2022/08/15 04:18:36;;;;;;;9.48;7.63;;;;;;;;;;5055670;28;20036;-43
2022/08/15 04:21:05;;;;;;;14.30;7.97;;;;;;;;;;5055513;28;20033;-42
2022/08/15 04:23:32;;;;;;;14.10;7.00;;;;;;;;;;5055617;28;20060;-48
2022/08/15 04:25:58;;;;;;;11.52;7.10;;;;;;;;;;5055578;28;20037;-50
2022/08/15 04:28:25;;;;;;;11.73;6.60;;;;;;;;;;5055751;28;20051;-43
2022/08/15 04:30:52;;;;;;;12.57;7.20;;;;;;;;;;5055402;28;20063;-47
2022/08/15 04:33:22;;;;;;;12.00;7.47;;;;;;;;;;5055488;28;20110;-46
2022/08/15 04:35:50;;;;;;;;;;;;;;;;;;5056113;28;20037;-46
2022/08/15 04:38:16;;;;;;;9.48;6.70;;;;;;;;;;5055629;28;20015;-45
2022/08/15 04:40:43;;;;;;;12.82;6.40;;;;;;;;;;5055119;28;20104;-44
2022/08/15 04:43:10;;;;;;;12.80;5.70;;;;;;;;;;5055422;28;20028;-50
2022/08/15 04:45:36;;;;;;;9.88;6.25;;;;;;;;;;5055149;28;20480;-46
2022/08/15 04:48:02;;;;;;;16.17;7.53;;;;;;;;;;5055416;28;20028;-45
2022/08/15 04:50:34;;;;;;;23.02;7.22;;;;;;;;;;5055034;28;20476;-45
2022/08/15 04:53:00;;;;;;;34.63;7.90;;;;;;;;;;5055322;28;20029;-45
2022/08/15 04:55:26;;;;;;;14.68;7.03;;;;;;;;;;5054966;28;20036;-46
2022/08/15 04:57:53;;;;;;;12.00;6.63;;;;;;;;;;5055177;28;20473;-46
2022/08/15 05:00:23;;;;;;;18.92;7.82;;;;;;;;;;5054786;28;20021;-46
2022/08/15 05:03:05;;;;;;;14.75;6.43;;;;;;;;;;5055074;28;20025;-46
2022/08/15 05:05:37;;;;;;;9.88;5.95;;;;;;;;;;5055073;28;20025;-48
2022/08/15 05:08:03;;;;;;;13.02;6.28;;;;;;;;;;5054850;28;20074;-44
2022/08/15 05:10:29;;;;;;;13.13;6.90;;;;;;;;;;5036838;28;20382;-45
2022/08/15 05:12:54;;;;;;;9.27;6.15;;;;;;;;;;5037030;28;20033;-47
2022/08/15 05:15:21;;;;;;;18.33;6.68;;;;;;;;;;5054828;28;20052;-43
2022/08/15 05:17:47;;;;;;;9.32;6.32;;;;;;;;;;5054133;28;20029;-46
2022/08/15 05:20:17;;;;;;;8.02;6.22;;;;;;;;;;5053877;28;20025;-46
2022/08/15 05:22:59;;;;;;;6.72;5.85;;;;;;;;;;5054577;28;20029;-45
2022/08/15 05:25:25;;;;;;;7.63;5.40;;;;;;;;;;5054680;28;20120;-46
2022/08/15 05:27:52;;;;;;;9.75;5.80;;;;;;;;;;5054620;28;20104;-43
2022/08/15 05:30:19;;;;;;;8.15;5.75;;;;;;;;;;5054296;28;20025;-45
2022/08/15 05:32:45;;;;;;;9.45;5.75;;;;;;;;;;5054603;28;20033;-48
2022/08/15 05:35:14;;;;;;;9.43;5.88;;;;;;;;;;5053929;28;20565;-44
2022/08/15 05:37:39;;;;;;;12.13;5.78;;;;;;;;;;5053937;28;20021;-49
2022/08/15 05:40:09;;;;;;;7.15;5.50;;;;;;;;;;5052456;28;20037;-46
2022/08/15 05:42:47;;;;;;;9.13;5.40;;;;;;;;;;5052384;28;20061;-47
2022/08/15 05:45:25;;;;;;;9.37;5.87;;;;;;;;;;5053548;28;20033;-44
2022/08/15 05:48:02;;;;;;;9.80;6.28;;;;;;;;;;5053820;28;20044;-47
2022/08/15 05:50:32;;;;;;;8.50;5.72;;;;;;;;;;5053221;28;20033;-46
2022/08/15 05:53:01;;;;;;;14.73;5.78;;;;;;;;;;5053538;28;20033;-48
2022/08/15 05:55:48;;;;;;;9.10;6.03;;;;;;;;;;5052821;28;20032;-46
2022/08/15 05:58:33;;;;;;;14.73;5.43;;;;;;;;;;5053795;28;20464;-43
2022/08/15 06:01:28;;;;;;;11.25;5.55;;;;;;;;;;5053663;28;20040;-47
2022/08/15 06:04:02;;;;;;;8.68;5.85;;;;;;;;;;5053938;28;20104;-45
2022/08/15 06:06:32;;;;;;;18.98;5.88;;;;;;;;;;5053683;28;20052;-49
2022/08/15 06:09:29;;;;;;;11.18;5.20;;;;;;;;;;5036119;28;20032;-45
2022/08/15 06:11:59;;;;;;;18.35;6.10;;;;;;;;;;5053531;28;20033;-44
2022/08/15 06:14:31;;;;;;;17.85;5.63;;;;;;;;;;5053486;28;20017;-47
2022/08/15 06:17:02;;;;;;;13.57;5.40;;;;;;;;;;5053380;28;20507;-45
2022/08/15 06:19:34;;;;;;;7.85;5.50;;;;;;;;;;5053318;28;20029;-47
2022/08/15 06:22:12;;;;;;;13.07;6.00;;;;;;;;;;5053419;28;20472;-49
2022/08/15 06:24:46;;;;;;;6.65;4.80;;;;;;;;;;5053548;28;20021;-45
2022/08/15 06:27:49;;;;;;;5.90;5.25;;;;;;;;;;5053481;28;20072;-45
2022/08/15 06:30:20;;;;;;;7.00;5.10;;;;;;;;;;5053044;28;20025;-42
2022/08/15 06:33:14;;;;;;;8.63;5.07;;;;;;;;;;5053068;28;20025;-46
2022/08/15 06:35:48;;;;;;;18.15;12.93;;;;;;;;;;5051494;28;20140;-49
2022/08/15 06:38:23;;;;;;;21.13;5.45;;;;;;;;;;5051209;28;20082;-46
2022/08/15 06:40:48;;;;;;;14.52;5.45;;;;;;;;;;5052203;28;20507;-45
2022/08/15 06:43:14;;;;;;;8.20;5.40;;;;;;;;;;5052970;28;20025;-45
2022/08/15 06:45:44;;;;;;;13.77;5.65;;;;;;;;;;5052382;28;20029;-43
2022/08/15 06:48:16;;;;;;;9.38;5.32;;;;;;;;;;5052719;28;20017;-49
2022/08/15 06:50:49;;;;;;;8.95;5.25;;;;;;;;;;5052750;28;20039;-44
2022/08/15 06:53:52;;;;;;;13.15;5.43;;;;;;;;;;5052503;28;20032;-47
2022/08/15 06:56:34;;;;;;;11.07;5.85;;;;;;;;;;5052624;28;20082;-45
2022/08/15 06:59:37;;;;;;;9.93;5.25;;;;;;;;;;5052641;28;20055;-43
2022/08/15 07:02:30;;;;;;;10.75;5.43;;;;;;;;;;5050965;28;20025;-49
2022/08/15 07:05:04;;;;;;;13.43;5.40;;;;;;;;;;5050655;28;20082;-50
2022/08/15 07:07:47;;;;;;;8.52;5.18;;;;;;;;;;5051257;28;20596;-50
2022/08/15 07:10:27;;;;;;;11.35;5.82;;;;;;;;;;5052488;28;20035;-49
2022/08/15 07:13:21;;;;;;;7.35;5.10;;;;;;;;;;5052663;28;20074;-52
2022/08/15 07:16:02;;;;;;;8.60;4.80;;;;;;;;;;5052501;28;20032;-45
2022/08/15 07:18:39;;;;;;;14.73;5.57;;;;;;;;;;5052123;28;20112;-47
2022/08/15 07:21:09;;;;;;;8.57;4.90;;;;;;;;;;5051565;28;20035;-46
2022/08/15 07:23:38;;;;;;;6.80;4.93;;;;;;;;;;5052014;28;20045;-48
2022/08/15 07:26:11;;;;;;;10.63;5.55;;;;;;;;;;5052190;28;20028;-47
2022/08/15 07:28:42;;;;;;;7.32;5.05;;;;;;;;;;5051965;28;20628;-48
2022/08/15 07:31:17;;;;;;;15.38;6.97;;;;;;;;;;5052107;28;20040;-50
2022/08/15 07:33:46;;;;;;;10.85;6.00;;;;;;;;;;5052122;28;20435;-47
2022/08/15 07:36:24;;;;;;;7.18;5.10;;;;;;;;;;5052486;28;20025;-52
2022/08/15 07:38:51;;;;;;;5.33;4.70;;;;;;;;;;5051936;28;20032;-50
2022/08/15 07:41:30;;;;;;;10.40;5.22;;;;;;;;;;5052452;28;20111;-50
2022/08/15 07:44:30;;;;;;;8.73;4.95;;;;;;;;;;5056404;28;20104;-46
2022/08/15 07:47:09;;;;;;;10.77;5.13;;;;;;;;;;5054415;28;20681;-49
2022/08/15 07:49:36;;;;;;;;;;;;;;;;;;5053250;28;20029;-50
2022/08/15 07:52:16;;;;;;;13.55;4.68;;;;;;;;;;5056527;28;19912;-50
2022/08/15 07:54:42;;;;;;;15.90;5.10;;;;;;;;;;5056267;28;20025;-50
2022/08/15 07:57:41;;;;;;;5.57;4.07;;;;;;;;;;5056027;28;20023;-43
2022/08/15 08:00:26;;;;;;;9.77;4.60;;;;;;;;;;5056058;28;20036;-52
2022/08/15 08:03:04;;;;;;;6.93;4.93;;;;;;;;;;5056284;28;20025;-47
2022/08/15 08:05:53;;;;;;;8.63;4.40;;;;;;;;;;5055734;28;20084;-54
2022/08/15 08:08:21;;;;;;;5.32;4.30;;;;;;;;;;5056085;28;20025;-54
2022/08/15 08:10:57;;;;;;;5.18;4.20;;;;;;;;;;5037962;28;20056;-48
2022/08/15 08:14:21;;;;;;;5.80;4.55;;;;;;;;;;5055699;28;20040;-48
2022/08/15 08:16:55;;;;;;;6.40;4.63;;;;;;;;;;4994032;28;20054;-50
2022/08/15 08:19:32;;;;;;;9.82;4.80;;;;;;;;;;5047095;28;20033;-45
2022/08/15 08:22:28;;;;;;;6.80;4.10;;;;;;;;;;5055270;28;20071;-46
2022/08/15 08:24:58;;;;;;;8.50;4.30;;;;;;;;;;5055502;28;20487;-49
2022/08/15 08:27:34;;;;;;;4.60;4.20;;;;;;;;;;5055559;28;20029;-47
2022/08/15 08:30:12;;;;;;;4.50;3.90;;;;;;;;;;5038419;28;20035;-52
2022/08/15 08:32:56;;;;;;;;;;;;;;;;;;5055759;28;20032;-49
2022/08/15 08:35:22;;;;;;;6.38;4.57;;;;;;;;;;5054905;28;19923;-51
2022/08/15 08:38:07;;;;;;;12.55;5.43;;;;;;;;;;5055042;28;20037;-47
2022/08/15 08:43:32;;;;;;;68.50;7.55;;;;;;;;;;5055154;28;20120;-47
2022/08/15 08:46:12;;;;;;;8.48;4.20;;;;;;;;;;5055106;28;20033;-48
2022/08/15 08:49:03;;;;;;;31.88;5.75;;;;;;;;;;5054426;28;20070;-50
2022/08/15 08:51:38;;;;;;;28.60;5.55;;;;;;;;;;5051678;28;20013;-47
2022/08/15 08:54:26;;;;;;;19.13;5.53;;;;;;;;;;5054764;28;20420;-43
2022/08/15 08:56:55;;;;;;;7.43;4.47;;;;;;;;;;5054974;28;20061;-46
2022/08/15 08:59:31;;;;;;;;;;;;;;;;;;5055392;28;20108;-43
2022/08/15 09:02:03;;;;;;;9.40;3.50;;;;;;;;;;5036649;28;19913;-46
2022/08/15 09:04:53;;;;;;;4.57;3.83;;;;;;;;;;5054853;28;20033;-40
2022/08/15 09:07:28;;;;;;;5.07;4.50;;;;;;;;;;5054492;28;20040;-42
2022/08/15 09:09:58;;;;;;;4.57;3.75;;;;;;;;;;5053490;28;20040;-43
2022/08/15 09:15:17;;;;;;;5.10;3.58;;;;;;;;;;5054219;28;20071;-44
2022/08/15 09:17:44;;;;;;;;;;;;;;;;;;5054546;28;20021;-42
2022/08/15 09:20:22;;;;;;;8.13;3.80;;;;;;;;;;5053949;28;19913;-43
2022/08/15 09:22:49;;;;;;;4.93;4.32;;;;;;;;;;5053613;28;20615;-43
2022/08/15 09:25:15;;;;;;;5.00;4.20;;;;;;;;;;5054381;28;20032;-43
2022/08/15 09:28:16;;;;;;;5.20;4.00;;;;;;;;;;5054116;28;20028;-45
2022/08/15 09:30:44;;;;;;;4.32;3.85;;;;;;;;;;5047277;28;20112;-42
2022/08/15 09:33:16;;;;;;;5.57;4.00;;;;;;;;;;5054533;28;20025;-42
2022/08/15 09:36:12;;;;;;;12.52;4.35;;;;;;;;;;5053852;28;20087;-44
2022/08/15 09:39:24;;;;;;;5.57;4.28;;;;;;;;;;5054014;28;20052;-46
2022/08/15 09:41:55;;;;;;;7.90;4.07;;;;;;;;;;5054168;28;20037;-43
2022/08/15 09:44:55;;;;;;;4.30;3.60;;;;;;;;;;5054213;28;20025;-46
2022/08/15 09:47:54;;;;;;;9.43;3.78;;;;;;;;;;5053939;28;20025;-45
2022/08/15 09:50:28;;;;;;;5.60;4.00;;;;;;;;;;5053853;28;20021;-43
2022/08/15 09:53:33;;;;;;;6.80;3.45;;;;;;;;;;5053817;28;20029;-45
2022/08/15 09:56:05;;;;;;;3.63;3.33;;;;;;;;;;5053945;28;20388;-47
2022/08/15 09:58:54;;;;;;;6.10;3.42;;;;;;;;;;5053526;28;20060;-48
2022/08/15 10:01:26;;;;;;;5.40;3.78;;;;;;;;;;5038909;28;20416;-45
2022/08/15 10:04:06;;;;;;;3.90;3.55;;;;;;;;;;5053755;28;20021;-43
2022/08/15 10:07:05;;;;;;;4.32;3.42;;;;;;;;;;5053286;28;20425;-43
2022/08/15 10:09:35;;;;;;;6.47;3.88;;;;;;;;;;5051904;28;20111;-51
2022/08/15 10:12:06;;;;;;;5.55;3.40;;;;;;;;;;5053736;28;20070;-49
2022/08/15 10:14:39;;;;;;;4.38;3.55;;;;;;;;;;5053663;28;20025;-45
2022/08/15 10:17:23;;;;;;;6.75;3.60;;;;;;;;;;5053560;28;20107;-43
2022/08/15 10:19:49;;;;;;;4.00;3.70;;;;;;;;;;5053215;28;20038;-47
2022/08/15 10:22:21;;;;;;;4.50;3.33;;;;;;;;;;5035445;28;20036;-49
2022/08/15 10:25:19;;;;;;;3.72;3.42;;;;;;;;;;5053307;28;20535;-46
2022/08/15 10:28:18;;;;;;;3.78;3.47;;;;;;;;;;5053187;28;20028;-50
2022/08/15 10:30:52;;;;;;;10.93;3.72;;;;;;;;;;5052926;28;20064;-43
2022/08/15 10:33:35;;;;;;;6.43;3.70;;;;;;;;;;5053408;28;20025;-45
2022/08/15 10:36:21;;;;;;;4.53;3.63;;;;;;;;;;5053257;28;20032;-46
2022/08/15 10:39:02;;;;;;;4.60;3.53;;;;;;;;;;5052823;28;20465;-45
2022/08/15 10:41:46;;;;;;;5.15;3.50;;;;;;;;;;5053050;28;20322;-43
2022/08/15 10:44:12;;;;;;;4.82;3.33;;;;;;;;;;5053101;28;20040;-44
2022/08/15 10:46:52;;;;;;;4.07;3.50;;;;;;;;;;5052695;28;20388;-42
2022/08/15 10:49:43;;;;;;;4.78;3.63;;;;;;;;;;5052759;28;20246;-45
2022/08/15 10:52:26;;;;;;;6.93;3.63;;;;;;;;;;5051721;28;20065;-43
2022/08/15 10:55:19;;;;;;;4.20;3.47;;;;;;;;;;5052861;28;20458;-45
2022/08/15 10:58:24;;;;;;;14.32;4.00;;;;;;;;;;5052572;28;20104;-49
2022/08/15 11:00:57;;;;;;;4.50;3.55;;;;;;;;;;4971279;28;20038;-45
2022/08/15 11:03:40;;;;;;;4.30;3.90;;;;;;;;;;5039723;28;20033;-43
2022/08/15 11:06:12;;;;;;;7.25;4.10;;;;;;;;;;5052782;28;20028;-46
2022/08/15 11:08:47;;;;;;;5.65;3.75;;;;;;;;;;5035345;28;20037;-45
2022/08/15 11:11:13;;;;;;;5.30;3.55;;;;;;;;;;5052501;28;20025;-46
2022/08/15 11:13:42;;;;;;;5.13;3.70;;;;;;;;;;5052561;28;20025;-47
2022/08/15 11:16:15;;;;;;;4.88;3.80;;;;;;;;;;5052394;28;20039;-43
2022/08/15 11:18:50;;;;;;;4.38;3.70;;;;;;;;;;5050702;28;20033;-48
2022/08/15 11:21:31;;;;;;;5.18;3.80;;;;;;;;;;5052542;28;20037;-44
2022/08/15 11:24:02;;;;;;;5.72;3.50;;;;;;;;;;5052273;28;20487;-45
2022/08/15 11:26:32;;;;;;;5.13;3.80;;;;;;;;;;5051951;28;20033;-44
2022/08/15 11:29:15;;;;;;;5.40;3.25;;;;;;;;;;5065350;28;20025;-41
2022/08/15 11:31:46;;;;;;;3.10;2.90;;;;;;;;;;5062558;28;20129;-44
2022/08/15 11:34:26;;;;;;;5.22;3.38;;;;;;;;;;5062125;28;20507;-42
2022/08/15 11:36:55;;;;;;;3.95;3.55;;;;;;;;;;5052808;28;20491;-42
2022/08/15 11:39:27;;;;;;;5.97;3.67;;;;;;;;;;5052074;28;20037;-45
2022/08/15 11:41:58;;;;;;;5.72;3.90;;;;;;;;;;5051684;28;20029;-47
2022/08/15 11:44:36;;;;;;;5.93;3.47;;;;;;;;;;5052506;28;20029;-42
2022/08/15 11:47:05;;;;;;;9.20;3.87;;;;;;;;;;5051106;28;20025;-45
2022/08/15 11:49:33;;;;;;;;;;;;;;;;;;5048654;28;20109;-46
2022/08/15 11:52:08;;;;;;;4.60;3.50;;;;;;;;;;5050145;28;19923;-47
2022/08/15 11:54:34;;;;;;;3.80;3.30;;;;;;;;;;5048273;28;20013;-46
2022/08/15 11:57:04;;;;;;;3.65;3.30;;;;;;;;;;5049694;28;20033;-50
2022/08/15 11:59:38;;;;;;;5.07;3.33;;;;;;;;;;5050614;28;20468;-44
2022/08/15 12:02:10;;;;;;;5.03;3.25;;;;;;;;;;5050567;28;20674;-49
2022/08/15 12:04:41;;;;;;;6.70;3.50;;;;;;;;;;5048279;28;20037;-44
2022/08/15 12:07:19;;;;;;;5.50;3.28;;;;;;;;;;5050687;28;20025;-42
2022/08/15 12:09:56;;;;;;;3.35;3.05;;;;;;;;;;5050798;28;20712;-43
2022/08/15 12:12:37;;;;;;;4.32;3.00;;;;;;;;;;5049526;28;20036;-45
2022/08/15 12:15:17;;;;;;;4.00;3.35;;;;;;;;;;5049359;28;20174;-48
2022/08/15 12:18:06;;;;;;;3.38;3.08;;;;;;;;;;5049569;28;20025;-42
2022/08/15 12:20:48;;;;;;;3.67;3.38;;;;;;;;;;5047841;28;20029;-47
2022/08/15 12:23:22;;;;;;;6.47;3.83;;;;;;;;;;5048107;28;20025;-45
2022/08/15 12:25:56;;;;;;;4.60;3.10;;;;;;;;;;5050277;28;20025;-45
2022/08/15 12:28:23;;;;;;;3.60;3.10;;;;;;;;;;5051711;28;20013;-44
2022/08/15 12:30:48;;;;;;;3.95;3.60;;;;;;;;;;5054719;28;20060;-45
2022/08/15 12:33:15;;;;;;;5.15;3.33;;;;;;;;;;5054723;28;20469;-45
2022/08/15 12:35:42;;;;;;;4.78;3.10;;;;;;;;;;5055044;28;20041;-42
2022/08/15 12:38:08;;;;;;;3.50;3.20;;;;;;;;;;5055254;28;20166;-42
2022/08/15 12:40:34;;;;;;;9.98;3.42;;;;;;;;;;5055279;28;20128;-44
2022/08/15 12:43:00;;;;;;;3.45;3.17;;;;;;;;;;5054362;28;20392;-47
2022/08/15 12:45:26;;;;;;;6.43;3.60;;;;;;;;;;5055093;28;20021;-42
2022/08/15 12:47:51;;;;;;;5.15;3.40;;;;;;;;;;5055241;28;20365;-44
2022/08/15 12:50:17;;;;;;;6.70;4.18;;;;;;;;;;5054945;28;20029;-43
2022/08/15 12:52:44;;;;;;;4.65;3.63;;;;;;;;;;5055091;28;20028;-50
2022/08/15 12:55:10;;;;;;;5.75;3.72;;;;;;;;;;5055066;28;20035;-44
2022/08/15 12:57:36;;;;;;;4.05;3.55;;;;;;;;;;5055175;28;20029;-42
2022/08/15 13:00:04;;;;;;;4.32;3.90;;;;;;;;;;5054897;28;20078;-44
2022/08/15 13:02:30;;;;;;;3.63;3.33;;;;;;;;;;5055050;28;20113;-43
2022/08/15 13:04:56;;;;;;;5.35;3.10;;;;;;;;;;5054721;28;20705;-44
2022/08/15 13:07:24;;;;;;;4.03;3.25;;;;;;;;;;5053682;28;20062;-44
2022/08/15 13:09:50;;;;;;;5.40;3.40;;;;;;;;;;5053015;28;20055;-42
2022/08/15 13:12:17;;;;;;;3.60;3.30;;;;;;;;;;5053340;28;20029;-45
2022/08/15 13:14:43;;;;;;;5.10;3.17;;;;;;;;;;5051592;28;20476;-42
2022/08/15 13:17:12;;;;;;;3.67;3.30;;;;;;;;;;5052360;28;20052;-48
2022/08/15 13:25:12;;;;;;;6.50;3.30;;;;;;;;;;5053135;28;20032;-50
2022/08/15 13:27:40;;;;;;;4.05;3.22;;;;;;;;;;5052986;28;20035;-51
2022/08/15 13:30:11;;;;;;;5.38;3.50;;;;;;;;;;5052713;28;20025;-52
2022/08/15 13:32:36;;;;;;;3.63;3.25;;;;;;;;;;5052860;28;20082;-46
2022/08/15 13:35:08;;;;;;;5.22;3.30;;;;;;;;;;5052348;28;20041;-46
2022/08/15 13:37:34;;;;;;;3.50;3.20;;;;;;;;;;5034846;28;20376;-42
2022/08/15 13:39:59;;;;;;;5.03;3.30;;;;;;;;;;5051289;28;20029;-44
2022/08/15 13:42:25;;;;;;;3.90;3.50;;;;;;;;;;5052692;28;20032;-44
2022/08/15 13:44:53;;;;;;;3.70;3.00;;;;;;;;;;5052304;28;20036;-43
2022/08/15 13:47:22;;;;;;;15.55;3.88;;;;;;;;;;5052558;28;20126;-47
2022/08/15 13:49:48;;;;;;;6.82;3.35;;;;;;;;;;5052271;28;20037;-45
2022/08/15 13:52:14;;;;;;;4.88;3.40;;;;;;;;;;5052165;28;20040;-46
2022/08/15 13:54:40;;;;;;;5.18;3.20;;;;;;;;;;5052325;28;20027;-45
2022/08/15 13:57:07;;;;;;;7.15;3.20;;;;;;;;;;5052108;28;20050;-45
2022/08/15 13:59:33;;;;;;;3.38;3.08;;;;;;;;;;5052011;28;20801;-44
2022/08/15 14:02:01;;;;;;;3.45;3.15;;;;;;;;;;5052132;28;20025;-43
2022/08/15 14:04:36;;;;;;;3.60;3.30;;;;;;;;;;5052358;28;20112;-46
2022/08/15 14:07:04;;;;;;;3.92;3.35;;;;;;;;;;5051895;28;20032;-44
2022/08/15 14:09:32;;;;;;;6.07;3.88;;;;;;;;;;5051861;28;20076;-51
2022/08/15 14:11:58;;;;;;;4.28;3.10;;;;;;;;;;5051913;28;20033;-47
2022/08/15 14:14:25;;;;;;;3.45;3.13;;;;;;;;;;5051613;28;20035;-44
2022/08/15 14:16:52;;;;;;;4.82;3.47;;;;;;;;;;5052038;28;20029;-43
2022/08/15 14:19:19;;;;;;;4.15;3.40;;;;;;;;;;5051621;28;20025;-45
2022/08/15 14:21:46;;;;;;;6.13;3.25;;;;;;;;;;5051936;28;20049;-48
2022/08/15 14:24:13;;;;;;;4.13;3.42;;;;;;;;;;5052011;28;20071;-45
2022/08/15 14:26:47;;;;;;;5.15;3.50;;;;;;;;;;5051894;28;20095;-42
2022/08/15 14:29:30;;;;;;;4.20;3.60;;;;;;;;;;5051826;28;20369;-48
2022/08/15 14:31:57;;;;;;;4.80;2.97;;;;;;;;;;5051162;28;20048;-45
2022/08/15 14:34:25;;;;;;;6.40;2.90;;;;;;;;;;5050578;28;20041;-49
2022/08/15 14:36:54;;;;;;;3.90;3.10;;;;;;;;;;5051541;28;20041;-47
2022/08/15 14:39:20;;;;;;;3.72;2.78;;;;;;;;;;5051780;28;20032;-50
2022/08/15 14:41:47;;;;;;;3.60;3.13;;;;;;;;;;5051079;28;20149;-46
2022/08/15 14:44:14;;;;;;;3.28;2.95;;;;;;;;;;5051173;28;20538;-46
2022/08/15 14:46:42;;;;;;;4.00;2.92;;;;;;;;;;5051448;28;20021;-49
2022/08/15 14:49:08;;;;;;;5.18;3.17;;;;;;;;;;5033730;28;20074;-45
2022/08/15 14:51:36;;;;;;;7.25;3.17;;;;;;;;;;5050724;28;20025;-51
2022/08/15 14:54:05;;;;;;;4.90;3.50;;;;;;;;;;5051249;28;20029;-49
2022/08/15 14:56:31;;;;;;;4.57;3.65;;;;;;;;;;5051177;28;20075;-48
2022/08/15 14:59:04;;;;;;;4.95;3.92;;;;;;;;;;5051341;28;20036;-48
2022/08/15 15:01:30;;;;;;;3.78;3.30;;;;;;;;;;5050690;28;20805;-45
2022/08/15 15:04:01;;;;;;;4.97;3.47;;;;;;;;;;5051202;28;20025;-50
2022/08/15 15:06:31;;;;;;;6.10;3.70;;;;;;;;;;5051003;28;20104;-49
2022/08/15 15:08:57;;;;;;;4.10;3.03;;;;;;;;;;5032504;28;20057;-47
2022/08/15 15:11:24;;;;;;;6.65;3.47;;;;;;;;;;5050644;28;20029;-46
2022/08/15 15:13:51;;;;;;;4.65;3.70;;;;;;;;;;5050734;28;20025;-44
2022/08/15 15:16:22;;;;;;;8.35;4.93;;;;;;;;;;5051148;28;20037;-45
2022/08/15 15:18:48;;;;;;;6.35;3.83;;;;;;;;;;5051139;28;20486;-45
2022/08/15 15:21:15;;;;;;;5.10;3.70;;;;;;;;;;5050799;28;20116;-43
2022/08/15 15:23:42;;;;;;;7.32;3.80;;;;;;;;;;5050958;28;20029;-49
2022/08/15 15:26:11;;;;;;;10.77;3.92;;;;;;;;;;5050771;28;20029;-45
2022/08/15 15:28:38;;;;;;;5.57;3.67;;;;;;;;;;5032878;28;20033;-45